createdAt,value
2023-04-27T00:00:43.771Z,100535.38
2023-04-27T00:03:21.840Z,100529.30
2023-04-27T00:05:54.561Z,100528.32
2023-04-27T00:08:27.444Z,100534.23
2023-04-27T00:11:01.529Z,100534.03
2023-04-27T00:13:33.810Z,100530.42
2023-04-27T00:16:10.613Z,100538.84
2023-04-27T00:18:43.547Z,100537.90
2023-04-27T00:21:16.312Z,100535.27
2023-04-27T00:23:49.859Z,100536.13
2023-04-27T00:26:24.037Z,100539.52
2023-04-27T00:28:57.053Z,100545.40
2023-04-27T00:31:30.290Z,100538.42
2023-04-27T00:34:04.494Z,100545.13
2023-04-27T00:36:36.444Z,100553.56
2023-04-27T00:39:10.753Z,100549.13
2023-04-27T00:41:44.084Z,100551.59
2023-04-27T00:44:23.616Z,100550.67
2023-04-27T00:46:56.915Z,100551.47
2023-04-27T00:49:31.107Z,100551.34
2023-04-27T00:52:03.887Z,100553.78
2023-04-27T00:54:36.769Z,100551.11
2023-04-27T00:57:09.201Z,100551.90
2023-04-27T00:59:41.741Z,100554.47
2023-04-27T01:02:15.106Z,100556.15
2023-04-27T01:04:47.912Z,100557.04
2023-04-27T01:07:20.301Z,100550.16
2023-04-27T01:09:55.654Z,100556.11
2023-04-27T01:12:29.617Z,100560.33
2023-04-27T01:15:02.924Z,100566.30
2023-04-27T01:17:36.088Z,100567.05
2023-04-27T01:20:12.651Z,100562.66
2023-04-27T01:22:45.261Z,100561.71
2023-04-27T01:25:18.086Z,100564.24
2023-04-27T01:27:50.625Z,100570.17
2023-04-27T01:30:23.456Z,100569.17
2023-04-27T01:32:57.159Z,100566.58
2023-04-27T01:35:33.108Z,100563.08
2023-04-27T01:38:06.182Z,100563.02
2023-04-27T01:40:39.026Z,100560.34
2023-04-27T01:43:11.436Z,100561.95
2023-04-27T01:45:44.018Z,100564.41
2023-04-27T01:48:16.792Z,100571.08
2023-04-27T01:50:50.216Z,100579.53
2023-04-27T01:53:22.593Z,100579.32
2023-04-27T01:55:56.198Z,100584.31
2023-04-27T01:58:31.280Z,100585.20
2023-04-27T02:01:04.579Z,100585.23
2023-04-27T02:03:39.680Z,100580.92
2023-04-27T02:06:13.562Z,100578.25
2023-04-27T02:08:46.220Z,100580.78
2023-04-27T02:11:19.978Z,100579.10
2023-04-27T02:13:52.321Z,100581.59
2023-04-27T02:16:25.541Z,100582.42
2023-04-27T02:18:59.488Z,100580.67
2023-04-27T02:21:32.104Z,100579.85
2023-04-27T02:24:07.220Z,100576.36
2023-04-27T02:26:40.079Z,100580.63
2023-04-27T02:29:14.283Z,100572.83
2023-04-27T02:31:48.916Z,100570.33
2023-04-27T02:34:21.426Z,100567.62
2023-04-27T02:36:54.404Z,100573.57
2023-04-27T02:39:26.839Z,100573.34
2023-04-27T02:42:00.851Z,100580.12
2023-04-27T02:44:34.440Z,100590.34
2023-04-27T02:47:07.690Z,100593.77
2023-04-27T02:49:40.313Z,100586.92
2023-04-27T02:52:12.767Z,100591.98
2023-04-27T02:54:46.784Z,100593.58
2023-04-27T02:57:20.035Z,100592.72
2023-04-27T02:59:54.725Z,100591.02
2023-04-27T03:02:28.442Z,100588.41
2023-04-27T03:05:03.921Z,100596.84
2023-04-27T03:07:37.187Z,100589.16
2023-04-27T03:10:11.150Z,100592.50
2023-04-27T03:12:43.708Z,100595.02
2023-04-27T03:15:16.003Z,100595.95
2023-04-27T03:17:48.760Z,100594.25
2023-04-27T03:20:23.484Z,100600.23
2023-04-27T03:22:56.190Z,100603.73
2023-04-27T03:25:29.353Z,100602.91
2023-04-27T03:28:04.536Z,100597.78
2023-04-27T03:30:40.157Z,100601.28
2023-04-27T03:33:12.778Z,100595.33
2023-04-27T03:35:55.723Z,100599.68
2023-04-27T03:38:29.594Z,100598.91
2023-04-27T03:41:04.616Z,100595.59
2023-04-27T03:43:37.630Z,100593.95
2023-04-27T03:46:15.446Z,100603.44
2023-04-27T03:48:59.105Z,100605.11
2023-04-27T03:51:33.436Z,100610.36
2023-04-27T03:54:06.136Z,100614.62
2023-04-27T03:56:39.826Z,100617.27
2023-04-27T03:59:12.787Z,100623.41
2023-04-27T04:01:50.871Z,100624.38
2023-04-27T04:04:23.785Z,100630.59
2023-04-27T04:06:56.950Z,100626.50
2023-04-27T04:09:30.997Z,100631.03
2023-04-27T04:12:04.646Z,100628.75
2023-04-27T04:14:37.886Z,100632.92
2023-04-27T04:17:12.319Z,100630.96
2023-04-27T04:19:46.375Z,100632.41
2023-04-27T04:22:18.774Z,100627.64
2023-04-27T04:24:52.615Z,100622.94
2023-04-27T04:27:25.237Z,100622.17
2023-04-27T04:29:59.103Z,100620.41
2023-04-27T04:32:31.934Z,100613.48
2023-04-27T04:35:06.299Z,100618.05
2023-04-27T04:37:39.911Z,100611.53
2023-04-27T04:40:15.137Z,100617.31
2023-04-27T04:42:48.505Z,100617.25
2023-04-27T04:45:22.007Z,100614.62
2023-04-27T04:47:55.950Z,100616.87
2023-04-27T04:50:31.015Z,100622.44
2023-04-27T04:53:05.615Z,100616.30
2023-04-27T04:55:38.815Z,100618.56
2023-04-27T04:58:13.493Z,100622.59
2023-04-27T05:00:49.810Z,100614.81
2023-04-27T05:03:22.504Z,100622.17
2023-04-27T05:05:55.652Z,100623.59
2023-04-27T05:08:28.009Z,100626.26
2023-04-27T05:11:02.977Z,100629.55
2023-04-27T05:13:35.823Z,100632.67
2023-04-27T05:16:09.836Z,100628.25
2023-04-27T05:18:42.544Z,100627.81
2023-04-27T05:21:21.027Z,100630.02
2023-04-27T05:23:53.376Z,100625.93
2023-04-27T05:26:26.493Z,100621.23
2023-04-27T05:28:57.257Z,100631.05
2023-04-27T05:31:30.848Z,100624.75
2023-04-27T05:34:03.230Z,100629.31
2023-04-27T05:36:36.223Z,100632.92
2023-04-27T05:39:08.769Z,100637.68
2023-04-27T05:41:42.006Z,100637.50
2023-04-27T05:44:14.229Z,100644.14
2023-04-27T05:46:46.804Z,100646.14
2023-04-27T05:49:19.554Z,100648.55
2023-04-27T05:51:52.218Z,100656.77
2023-04-27T05:54:24.522Z,100651.23
2023-04-27T05:56:57.846Z,100651.27
2023-04-27T05:59:30.378Z,100659.11
2023-04-27T06:02:03.168Z,100659.11
2023-04-27T06:04:36.947Z,100654.54
2023-04-27T06:07:18.281Z,100658.72
2023-04-27T06:09:51.793Z,100657.77
2023-04-27T06:12:24.905Z,100663.05
2023-04-27T06:14:58.101Z,100669.33
2023-04-27T06:17:30.837Z,100668.53
2023-04-27T06:20:07.028Z,100679.41
2023-04-27T06:22:39.794Z,100678.05
2023-04-27T06:25:12.638Z,100680.31
2023-04-27T06:27:46.092Z,100673.84
2023-04-27T06:30:18.818Z,100677.80
2023-04-27T06:32:52.600Z,100679.83
2023-04-27T06:35:25.859Z,100684.43
2023-04-27T06:37:59.411Z,100684.20
2023-04-27T06:40:31.739Z,100680.95
2023-04-27T06:43:04.161Z,100679.90
2023-04-27T06:45:36.683Z,100674.83
2023-04-27T06:48:09.470Z,100678.35
2023-04-27T06:50:42.000Z,100676.37
2023-04-27T06:53:14.600Z,100671.50
2023-04-27T06:55:48.568Z,100676.84
2023-04-27T06:58:21.271Z,100687.18
2023-04-27T07:00:56.557Z,100685.21
2023-04-27T07:03:29.367Z,100688.37
2023-04-27T07:06:02.377Z,100682.48
2023-04-27T07:08:35.019Z,100689.41
2023-04-27T07:11:07.636Z,100691.46
2023-04-27T07:13:40.196Z,100683.92
2023-04-27T07:16:12.933Z,100682.55
2023-04-27T07:18:45.661Z,100688.00
2023-04-27T07:21:18.433Z,100688.36
2023-04-27T07:23:51.351Z,100689.53
2023-04-27T07:26:25.199Z,100689.38
2023-04-27T07:28:58.126Z,100695.66
2023-04-27T07:31:32.103Z,100692.45
2023-04-27T07:34:05.326Z,100683.92
2023-04-27T07:36:38.308Z,100693.38
2023-04-27T07:39:12.123Z,100693.97
2023-04-27T07:41:43.218Z,100693.45
2023-04-27T07:44:15.627Z,100693.55
2023-04-27T07:46:49.650Z,100699.94
2023-04-27T07:49:21.932Z,100702.95
2023-04-27T07:51:54.609Z,100698.22
2023-04-27T07:54:27.071Z,100701.59
2023-04-27T07:56:59.713Z,100704.00
2023-04-27T07:59:33.145Z,100701.38
2023-04-27T08:02:18.255Z,100703.36
2023-04-27T08:04:52.727Z,100708.14
2023-04-27T08:07:24.303Z,100716.95
2023-04-27T08:09:57.229Z,100715.25
2023-04-27T08:12:31.644Z,100706.31
2023-04-27T08:15:04.276Z,100710.78
2023-04-27T08:17:37.459Z,100709.61
2023-04-27T08:20:13.093Z,100710.95
2023-04-27T08:22:46.987Z,100710.52
2023-04-27T08:25:19.376Z,100708.51
2023-04-27T08:27:52.001Z,100712.02
2023-04-27T08:30:24.224Z,100721.80
2023-04-27T08:32:56.881Z,100716.66
2023-04-27T08:35:31.861Z,100719.52
2023-04-27T08:38:04.700Z,100718.14
2023-04-27T08:40:37.072Z,100710.70
2023-04-27T08:43:11.085Z,100712.95
2023-04-27T08:45:50.050Z,100714.79
2023-04-27T08:48:23.159Z,100707.20
2023-04-27T08:50:57.794Z,100707.05
2023-04-27T08:53:31.036Z,100703.94
2023-04-27T08:56:05.969Z,100706.56
2023-04-27T08:58:41.604Z,100703.51
2023-04-27T09:01:14.087Z,100706.05
2023-04-27T09:03:48.008Z,100704.08
2023-04-27T09:06:33.006Z,100707.02
2023-04-27T09:09:07.141Z,100704.86
2023-04-27T09:11:41.124Z,100697.80
2023-04-27T09:14:24.978Z,100695.52
2023-04-27T09:17:01.944Z,100700.08
2023-04-27T09:19:36.130Z,100688.48
2023-04-27T09:22:13.930Z,100685.40
2023-04-27T09:24:54.960Z,100681.73
2023-04-27T09:27:27.806Z,100682.18
2023-04-27T09:30:02.249Z,100679.67
2023-04-27T09:32:34.822Z,100687.77
2023-04-27T09:35:16.116Z,100694.11
2023-04-27T09:37:48.958Z,100688.81
2023-04-27T09:40:23.922Z,100684.73
2023-04-27T09:42:58.059Z,100690.16
2023-04-27T09:45:31.536Z,100694.61
2023-04-27T09:48:07.558Z,100702.38
2023-04-27T09:50:41.792Z,100706.67
2023-04-27T09:53:17.279Z,100715.13
2023-04-27T09:55:56.454Z,100713.84
2023-04-27T09:58:55.659Z,100728.33
2023-04-27T10:01:37.294Z,100738.22
2023-04-27T10:04:22.008Z,100743.83
2023-04-27T10:07:05.238Z,100744.91
2023-04-27T10:09:46.885Z,100744.20
2023-04-27T10:12:23.810Z,100734.78
2023-04-27T10:14:57.709Z,100733.09
2023-04-27T10:17:33.512Z,100736.61
2023-04-27T10:20:09.342Z,100735.75
2023-04-27T10:22:43.734Z,100732.28
2023-04-27T10:25:24.277Z,100729.70
2023-04-27T10:27:59.817Z,100734.91
2023-04-27T10:30:35.513Z,100730.53
2023-04-27T10:33:10.501Z,100727.92
2023-04-27T10:35:44.803Z,100729.66
2023-04-27T10:38:20.753Z,100727.91
2023-04-27T10:41:01.694Z,100725.25
2023-04-27T10:43:36.031Z,100716.52
2023-04-27T10:46:13.704Z,100725.10
2023-04-27T10:48:47.106Z,100723.28
2023-04-27T10:51:20.641Z,100725.77
2023-04-27T10:53:56.764Z,100724.82
2023-04-27T10:56:29.396Z,100729.05
2023-04-27T10:59:06.617Z,100726.27
2023-04-27T11:01:39.583Z,100724.36
2023-04-27T11:04:12.453Z,100715.55
2023-04-27T11:06:48.708Z,100716.32
2023-04-27T11:09:29.591Z,100714.30
2023-04-27T11:12:02.027Z,100719.83
2023-04-27T11:14:35.472Z,100721.07
2023-04-27T11:17:09.610Z,100720.84
2023-04-27T11:19:48.169Z,100729.36
2023-04-27T11:22:20.887Z,100722.91
2023-04-27T11:24:54.569Z,100720.97
2023-04-27T11:27:37.166Z,100729.63
2023-04-27T11:30:22.742Z,100724.44
2023-04-27T11:32:55.321Z,100729.59
2023-04-27T11:35:36.897Z,100726.13
2023-04-27T11:38:09.621Z,100720.04
2023-04-27T11:40:42.970Z,100721.73
2023-04-27T11:43:17.035Z,100724.27
2023-04-27T11:45:48.320Z,100719.16
2023-04-27T11:48:21.201Z,100714.63
2023-04-27T11:50:54.800Z,100710.27
2023-04-27T11:53:35.430Z,100710.95
2023-04-27T11:56:11.364Z,100716.84
2023-04-27T11:58:46.394Z,100707.95
2023-04-27T12:01:27.655Z,100712.27
2023-04-27T12:04:07.853Z,100713.10
2023-04-27T12:06:41.203Z,100709.55
2023-04-27T12:09:13.624Z,100706.08
2023-04-27T12:11:46.073Z,100711.32
2023-04-27T12:14:20.220Z,100711.41
2023-04-27T12:16:53.110Z,100713.20
2023-04-27T12:19:26.302Z,100705.29
2023-04-27T12:22:00.401Z,100708.00
2023-04-27T12:24:31.836Z,100709.73
2023-04-27T12:27:05.917Z,100706.41
2023-04-27T12:29:38.389Z,100708.55
2023-04-27T12:32:10.999Z,100712.98
2023-04-27T12:34:43.731Z,100713.88
2023-04-27T12:37:16.122Z,100704.50
2023-04-27T12:39:48.968Z,100709.81
2023-04-27T12:42:24.689Z,100715.14
2023-04-27T12:44:58.090Z,100718.03
2023-04-27T12:50:06.762Z,100723.05
2023-04-27T12:52:39.362Z,100732.02
2023-04-27T12:55:21.497Z,100734.70
2023-04-27T12:58:05.129Z,100731.30
2023-04-27T13:00:37.353Z,100738.19
2023-04-27T13:03:10.440Z,100737.28
2023-04-27T13:05:44.729Z,100738.92
2023-04-27T13:08:17.310Z,100742.31
2023-04-27T13:10:50.771Z,100739.63
2023-04-27T13:13:23.243Z,100737.83
2023-04-27T13:15:56.641Z,100732.59
2023-04-27T13:18:32.911Z,100730.02
2023-04-27T13:21:07.821Z,100732.53
2023-04-27T13:23:40.386Z,100730.69
2023-04-27T13:26:13.728Z,100734.93
2023-04-27T13:28:46.485Z,100738.44
2023-04-27T13:31:19.210Z,100730.62
2023-04-27T13:33:51.728Z,100737.73
2023-04-27T13:36:24.387Z,100741.26
2023-04-27T13:38:57.989Z,100737.83
2023-04-27T13:41:32.393Z,100745.78
2023-04-27T13:44:05.556Z,100746.83
2023-04-27T13:46:38.191Z,100744.27
2023-04-27T13:49:12.057Z,100750.45
2023-04-27T13:51:44.984Z,100758.38
2023-04-27T13:54:17.747Z,100757.56
2023-04-27T13:56:50.326Z,100760.20
2023-04-27T13:59:22.973Z,100758.53
2023-04-27T14:01:55.858Z,100757.67
2023-04-27T14:04:28.369Z,100764.61
2023-04-27T14:07:01.290Z,100754.09
2023-04-27T14:09:33.573Z,100750.48
2023-04-27T14:12:06.548Z,100757.44
2023-04-27T14:14:39.690Z,100757.44
2023-04-27T14:17:12.168Z,100764.52
2023-04-27T14:19:44.394Z,100756.77
2023-04-27T14:22:16.973Z,100763.78
2023-04-27T14:24:50.489Z,100766.45
2023-04-27T14:27:23.766Z,100764.80
2023-04-27T14:29:56.221Z,100763.14
2023-04-27T14:32:29.055Z,100763.12
2023-04-27T14:35:02.929Z,100760.50
2023-04-27T14:37:36.480Z,100763.89
2023-04-27T14:40:11.269Z,100774.24
2023-04-27T14:42:43.897Z,100772.39
2023-04-27T14:45:18.364Z,100768.87
2023-04-27T14:47:52.054Z,100780.16
2023-04-27T14:50:24.457Z,100783.73
2023-04-27T14:53:01.926Z,100781.23
2023-04-27T14:55:34.346Z,100781.36
2023-04-27T14:58:07.759Z,100775.41
2023-04-27T15:00:40.134Z,100783.34
2023-04-27T15:03:12.884Z,100780.87
2023-04-27T15:05:45.299Z,100781.83
2023-04-27T15:08:18.008Z,100787.15
2023-04-27T15:10:50.622Z,100790.76
2023-04-27T15:13:23.176Z,100795.19
2023-04-27T15:15:58.351Z,100793.45
2023-04-27T15:18:33.033Z,100799.66
2023-04-27T15:21:06.027Z,100801.45
2023-04-27T15:23:38.460Z,100796.26
2023-04-27T15:26:11.160Z,100791.97
2023-04-27T15:28:45.517Z,100793.73
2023-04-27T15:31:18.286Z,100790.27
2023-04-27T15:33:50.693Z,100789.41
2023-04-27T15:36:26.833Z,100790.26
2023-04-27T15:38:59.525Z,100789.41
2023-04-27T15:41:32.399Z,100797.23
2023-04-27T15:44:08.548Z,100798.09
2023-04-27T15:46:41.651Z,100793.73
2023-04-27T15:49:15.375Z,100791.14
2023-04-27T15:51:48.202Z,100792.02
2023-04-27T15:54:22.444Z,100794.62
2023-04-27T15:56:55.138Z,100801.61
2023-04-27T15:59:28.038Z,100806.81
2023-04-27T16:02:01.301Z,100806.84
2023-04-27T16:04:33.946Z,100800.77
2023-04-27T16:07:07.396Z,100807.72
2023-04-27T16:09:42.567Z,100808.61
2023-04-27T16:12:14.985Z,100807.77
2023-04-27T16:14:52.189Z,100811.25
2023-04-27T16:17:24.891Z,100803.46
2023-04-27T16:19:58.805Z,100811.27
2023-04-27T16:22:32.077Z,100807.84
2023-04-27T16:25:06.874Z,100806.10
2023-04-27T16:27:39.760Z,100806.95
2023-04-27T16:30:14.812Z,100800.89
2023-04-27T16:32:48.670Z,100805.22
2023-04-27T16:35:25.019Z,100806.97
2023-04-27T16:37:57.975Z,100803.48
2023-04-27T16:40:31.071Z,100808.69
2023-04-27T16:43:04.506Z,100810.43
2023-04-27T16:45:38.697Z,100813.91
2023-04-27T16:48:13.287Z,100808.72
2023-04-27T16:50:46.517Z,100813.04
2023-04-27T16:53:21.357Z,100818.28
2023-04-27T16:55:53.812Z,100817.40
2023-04-27T16:58:26.585Z,100823.48
2023-04-27T17:00:59.370Z,100826.94
2023-04-27T17:03:36.174Z,100823.50
2023-04-27T17:06:10.086Z,100825.22
2023-04-27T17:08:42.649Z,100826.96
2023-04-27T17:11:15.441Z,100831.28
2023-04-27T17:13:49.755Z,100839.09
2023-04-27T17:16:23.711Z,100835.64
2023-04-27T17:19:00.413Z,100834.77
2023-04-27T17:21:32.950Z,100825.22
2023-04-27T17:24:06.674Z,100828.69
2023-04-27T17:26:44.289Z,100831.28
2023-04-27T17:29:17.189Z,100828.66
2023-04-27T17:31:50.620Z,100839.92
2023-04-27T17:34:24.575Z,100837.30
2023-04-27T17:36:56.885Z,100838.13
2023-04-27T17:39:29.646Z,100833.78
2023-04-27T17:42:02.974Z,100843.28
2023-04-27T17:44:39.547Z,100839.78
2023-04-27T17:47:12.085Z,100841.47
2023-04-27T17:49:44.756Z,100844.00
2023-04-27T17:52:17.341Z,100850.02
2023-04-27T17:54:51.362Z,100843.05
2023-04-27T17:57:25.157Z,100850.78
2023-04-27T17:59:57.966Z,100852.45
2023-04-27T18:02:30.537Z,100854.13
2023-04-27T18:05:05.770Z,100865.34
2023-04-27T18:07:39.603Z,100867.02
2023-04-27T18:10:13.641Z,100867.84
2023-04-27T18:12:46.194Z,100866.89
2023-04-27T18:15:18.480Z,100872.93
2023-04-27T18:17:50.864Z,100881.50
2023-04-27T18:20:23.526Z,100884.87
2023-04-27T18:22:56.263Z,100882.19
2023-04-27T18:25:28.674Z,100882.15
2023-04-27T18:28:03.389Z,100883.81
2023-04-27T18:30:40.385Z,100888.09
2023-04-27T18:33:13.701Z,100875.05
2023-04-27T18:35:46.345Z,100885.38
2023-04-27T18:38:22.616Z,100881.84
2023-04-27T18:40:55.185Z,100888.71
2023-04-27T18:43:28.514Z,100887.77
2023-04-27T18:46:03.070Z,100892.86
2023-04-27T18:48:35.922Z,100891.05
2023-04-27T18:51:13.156Z,100887.51
2023-04-27T18:53:46.459Z,100898.59
2023-04-27T18:56:18.946Z,100898.53
2023-04-27T18:58:52.096Z,100898.48
2023-04-27T19:01:26.978Z,100901.86
2023-04-27T19:04:00.705Z,100891.43
2023-04-27T19:06:32.262Z,100894.81
2023-04-27T19:09:07.038Z,100899.92
2023-04-27T19:11:40.144Z,100896.38
2023-04-27T19:14:13.167Z,100898.00
2023-04-27T19:16:46.418Z,100894.39
2023-04-27T19:19:19.458Z,100899.48
2023-04-27T19:21:52.272Z,100896.77
2023-04-27T19:24:24.745Z,100893.27
2023-04-27T19:26:57.106Z,100891.52
2023-04-27T19:29:29.685Z,100893.19
2023-04-27T19:32:02.438Z,100898.31
2023-04-27T19:34:36.359Z,100896.56
2023-04-27T19:37:08.754Z,100902.56
2023-04-27T19:39:41.550Z,100899.91
2023-04-27T19:42:15.449Z,100897.27
2023-04-27T19:44:50.306Z,100895.51
2023-04-27T19:47:24.206Z,100898.92
2023-04-27T19:49:58.902Z,100899.70
2023-04-27T19:52:34.813Z,100903.05
2023-04-27T19:55:08.973Z,100906.47
2023-04-27T19:57:46.082Z,100909.00
2023-04-27T20:00:19.487Z,100903.74
2023-04-27T20:02:53.636Z,100908.84
2023-04-27T20:05:27.767Z,100906.12
2023-04-27T20:08:00.323Z,100902.58
2023-04-27T20:10:35.331Z,100907.63
2023-04-27T20:13:07.883Z,100906.69
2023-04-27T20:15:40.944Z,100917.77
2023-04-27T20:18:13.753Z,100915.06
2023-04-27T20:20:46.685Z,100920.15
2023-04-27T20:23:19.760Z,100918.30
2023-04-27T20:25:53.945Z,100916.45
2023-04-27T20:28:24.935Z,100927.47
2023-04-27T20:31:00.394Z,100919.50
2023-04-27T20:33:36.385Z,100928.83
2023-04-27T20:36:17.270Z,100933.91
2023-04-27T20:38:51.029Z,100931.22
2023-04-27T20:41:24.181Z,100940.56
2023-04-27T20:43:56.962Z,100937.80
2023-04-27T20:46:29.990Z,100942.86
2023-04-27T20:49:02.814Z,100936.77
2023-04-27T20:51:36.754Z,100941.83
2023-04-27T20:54:10.749Z,100945.97
2023-04-27T20:56:47.327Z,100943.25
2023-04-27T20:59:20.084Z,100939.70
2023-04-27T21:01:52.660Z,100935.23
2023-04-27T21:04:26.315Z,100942.02
2023-04-27T21:06:59.182Z,100939.34
2023-04-27T21:09:31.790Z,100947.01
2023-04-27T21:12:04.454Z,100940.88
2023-04-27T21:14:37.793Z,100943.31
2023-04-27T21:17:10.396Z,100946.70
2023-04-27T21:19:44.058Z,100942.34
2023-04-27T21:22:16.545Z,100944.89
2023-04-27T21:24:49.041Z,100943.91
2023-04-27T21:27:23.431Z,100949.02
2023-04-27T21:29:56.240Z,100946.38
2023-04-27T21:32:28.745Z,100947.27
2023-04-27T21:35:01.330Z,100949.79
2023-04-27T21:37:34.443Z,100953.23
2023-04-27T21:40:09.620Z,100947.16
2023-04-27T21:42:43.433Z,100947.06
2023-04-27T21:45:16.943Z,100951.30
2023-04-27T21:47:49.685Z,100955.48
2023-04-27T21:50:22.849Z,100957.88
2023-04-27T21:52:55.212Z,100962.95
2023-04-27T21:55:27.550Z,100961.14
2023-04-27T21:57:59.767Z,100965.28
2023-04-27T22:00:34.711Z,100963.38
2023-04-27T22:03:09.390Z,100971.02
2023-04-27T22:05:41.960Z,100966.66
2023-04-27T22:08:14.642Z,100966.56
2023-04-27T22:10:50.028Z,100968.22
2023-04-27T22:13:23.523Z,100973.31
2023-04-27T22:15:56.199Z,100967.14
2023-04-27T22:18:29.302Z,100974.73
2023-04-27T22:21:02.040Z,100972.03
2023-04-27T22:23:34.972Z,100977.16
2023-04-27T22:26:09.109Z,100971.91
2023-04-27T22:28:42.675Z,100973.45
2023-04-27T22:31:15.606Z,100975.96
2023-04-27T22:33:48.704Z,100974.08
2023-04-27T22:36:20.995Z,100981.61
2023-04-27T22:38:54.384Z,100980.64
2023-04-27T22:41:26.656Z,100977.04
2023-04-27T22:43:59.345Z,100975.25
2023-04-27T22:46:31.667Z,100970.11
2023-04-27T22:49:06.549Z,100976.05
2023-04-27T22:51:38.882Z,100969.83
2023-04-27T22:54:14.168Z,100974.12
2023-04-27T22:56:47.260Z,100975.80
2023-04-27T22:59:23.035Z,100978.34
2023-04-27T23:01:55.279Z,100974.05
2023-04-27T23:04:29.282Z,100983.42
2023-04-27T23:07:03.729Z,100982.45
2023-04-27T23:09:35.567Z,100985.00
2023-04-27T23:12:09.230Z,100979.70
2023-04-27T23:14:42.748Z,100982.17
2023-04-27T23:17:15.702Z,100981.10
2023-04-27T23:19:49.728Z,100981.06
2023-04-27T23:22:22.166Z,100984.31
2023-04-27T23:24:54.819Z,100980.59
2023-04-27T23:27:28.230Z,100980.52
2023-04-27T23:30:00.904Z,100978.77
2023-04-27T23:32:33.526Z,100982.98
2023-04-27T23:35:09.751Z,100982.83
2023-04-27T23:37:44.169Z,100981.91
2023-04-27T23:40:17.361Z,100984.36
2023-04-27T23:42:51.546Z,100984.17
2023-04-27T23:45:24.544Z,100979.70
2023-04-27T23:47:59.449Z,100982.16
2023-04-27T23:50:33.990Z,100987.27
2023-04-27T23:53:08.765Z,100986.29
2023-04-27T23:55:42.000Z,100988.75
2023-04-27T23:58:15.653Z,100989.52
